sensor_id;sensor_type;location;lat;lon;timestamp;temperature;humidity
7704;DHT22;3894;49.700;10.770;2024-01-10T00:00:06;-4.60;99.70
7704;DHT22;3894;49.700;10.770;2024-01-10T00:02:32;-4.60;99.80
7704;DHT22;3894;49.700;10.770;2024-01-10T00:04:57;-4.60;99.90
7704;DHT22;3894;49.700;10.770;2024-01-10T00:07:23;-4.70;99.90
7704;DHT22;3894;49.700;10.770;2024-01-10T00:09:49;-4.70;99.90
7704;DHT22;3894;49.700;10.770;2024-01-10T00:12:14;-4.70;99.90
7704;DHT22;3894;49.700;10.770;2024-01-10T00:14:40;-4.70;99.90
7704;DHT22;3894;49.700;10.770;2024-01-10T00:17:06;-4.70;99.90
7704;DHT22;3894;49.700;10.770;2024-01-10T00:19:31;-4.70;99.90
7704;DHT22;3894;49.700;10.770;2024-01-10T00:21:57;-4.70;99.90
7704;DHT22;3894;49.700;10.770;2024-01-10T00:24:22;-4.70;99.90
7704;DHT22;3894;49.700;10.770;2024-01-10T00:26:48;-4.70;99.90
7704;DHT22;3894;49.700;10.770;2024-01-10T00:29:13;-4.80;99.90
7704;DHT22;3894;49.700;10.770;2024-01-10T00:31:40;-4.80;99.90
7704;DHT22;3894;49.700;10.770;2024-01-10T00:34:05;-4.80;99.90
7704;DHT22;3894;49.700;10.770;2024-01-10T00:36:31;-4.80;99.90
7704;DHT22;3894;49.700;10.770;2024-01-10T00:38:56;-4.80;99.90
7704;DHT22;3894;49.700;10.770;2024-01-10T00:41:22;-4.80;99.90
7704;DHT22;3894;49.700;10.770;2024-01-10T00:43:47;-4.80;99.90
7704;DHT22;3894;49.700;10.770;2024-01-10T00:46:13;-4.80;99.90
7704;DHT22;3894;49.700;10.770;2024-01-10T00:48:40;-4.80;99.90
7704;DHT22;3894;49.700;10.770;2024-01-10T00:51:05;-4.80;99.90
7704;DHT22;3894;49.700;10.770;2024-01-10T00:53:34;-4.80;99.90
7704;DHT22;3894;49.700;10.770;2024-01-10T00:56:00;-4.80;99.90
7704;DHT22;3894;49.700;10.770;2024-01-10T00:58:25;-4.80;99.90
7704;DHT22;3894;49.700;10.770;2024-01-10T01:00:51;-4.80;99.90
7704;DHT22;3894;49.700;10.770;2024-01-10T01:03:16;-4.80;99.90
7704;DHT22;3894;49.700;10.770;2024-01-10T01:05:42;-4.80;99.90
7704;DHT22;3894;49.700;10.770;2024-01-10T01:08:08;-4.70;99.90
7704;DHT22;3894;49.700;10.770;2024-01-10T01:10:34;-4.80;99.90
7704;DHT22;3894;49.700;10.770;2024-01-10T01:12:59;-4.80;99.90
7704;DHT22;3894;49.700;10.770;2024-01-10T01:15:25;-4.80;99.90
7704;DHT22;3894;49.700;10.770;2024-01-10T01:17:50;-4.80;99.90
7704;DHT22;3894;49.700;10.770;2024-01-10T01:20:16;-4.80;99.90
7704;DHT22;3894;49.700;10.770;2024-01-10T01:22:41;-4.80;99.90
7704;DHT22;3894;49.700;10.770;2024-01-10T01:25:07;-4.80;99.90
7704;DHT22;3894;49.700;10.770;2024-01-10T01:27:33;-4.80;99.90
7704;DHT22;3894;49.700;10.770;2024-01-10T01:29:58;-4.80;99.90
7704;DHT22;3894;49.700;10.770;2024-01-10T01:32:24;-4.80;99.90
7704;DHT22;3894;49.700;10.770;2024-01-10T01:34:49;-4.80;99.90
7704;DHT22;3894;49.700;10.770;2024-01-10T01:37:15;-4.80;99.90
7704;DHT22;3894;49.700;10.770;2024-01-10T01:39:40;-4.80;99.90
7704;DHT22;3894;49.700;10.770;2024-01-10T01:42:06;-4.90;99.90
7704;DHT22;3894;49.700;10.770;2024-01-10T01:44:31;-4.90;99.90
7704;DHT22;3894;49.700;10.770;2024-01-10T01:46:59;-4.90;99.90
7704;DHT22;3894;49.700;10.770;2024-01-10T01:49:25;-4.90;99.90
7704;DHT22;3894;49.700;10.770;2024-01-10T01:51:52;-4.90;99.90
7704;DHT22;3894;49.700;10.770;2024-01-10T01:54:18;-4.90;99.90
7704;DHT22;3894;49.700;10.770;2024-01-10T01:56:45;-4.90;99.90
7704;DHT22;3894;49.700;10.770;2024-01-10T01:59:11;-4.90;99.90
7704;DHT22;3894;49.700;10.770;2024-01-10T02:01:37;-4.90;99.90
7704;DHT22;3894;49.700;10.770;2024-01-10T02:04:03;-4.90;99.90
7704;DHT22;3894;49.700;10.770;2024-01-10T02:06:29;-5.00;99.90
7704;DHT22;3894;49.700;10.770;2024-01-10T02:08:59;-5.00;99.90
7704;DHT22;3894;49.700;10.770;2024-01-10T02:11:25;-5.00;99.90
7704;DHT22;3894;49.700;10.770;2024-01-10T02:13:52;-5.00;99.90
7704;DHT22;3894;49.700;10.770;2024-01-10T02:16:20;-5.00;99.90
7704;DHT22;3894;49.700;10.770;2024-01-10T02:18:46;-5.00;99.90
7704;DHT22;3894;49.700;10.770;2024-01-10T02:21:11;-5.00;99.90
7704;DHT22;3894;49.700;10.770;2024-01-10T02:23:37;-5.00;99.90
7704;DHT22;3894;49.700;10.770;2024-01-10T02:26:02;-5.00;99.90
7704;DHT22;3894;49.700;10.770;2024-01-10T02:28:28;-5.00;99.90
7704;DHT22;3894;49.700;10.770;2024-01-10T02:30:54;-5.00;99.90
7704;DHT22;3894;49.700;10.770;2024-01-10T02:33:20;-5.00;99.90
7704;DHT22;3894;49.700;10.770;2024-01-10T02:35:46;-4.90;99.90
7704;DHT22;3894;49.700;10.770;2024-01-10T02:38:11;-5.00;99.90
7704;DHT22;3894;49.700;10.770;2024-01-10T02:40:37;-5.00;99.90
7704;DHT22;3894;49.700;10.770;2024-01-10T02:43:02;-5.00;99.90
7704;DHT22;3894;49.700;10.770;2024-01-10T02:45:28;-4.90;99.90
7704;DHT22;3894;49.700;10.770;2024-01-10T02:47:54;-5.00;99.90
7704;DHT22;3894;49.700;10.770;2024-01-10T02:50:19;-4.90;99.90
7704;DHT22;3894;49.700;10.770;2024-01-10T02:52:45;-4.90;99.90
7704;DHT22;3894;49.700;10.770;2024-01-10T02:55:11;-4.90;99.90
7704;DHT22;3894;49.700;10.770;2024-01-10T02:57:36;-4.90;99.90
7704;DHT22;3894;49.700;10.770;2024-01-10T03:00:02;-4.90;99.90
7704;DHT22;3894;49.700;10.770;2024-01-10T03:02:29;-4.90;99.90
7704;DHT22;3894;49.700;10.770;2024-01-10T03:04:55;-4.90;99.90
7704;DHT22;3894;49.700;10.770;2024-01-10T03:07:21;-4.90;99.90
7704;DHT22;3894;49.700;10.770;2024-01-10T03:09:46;-4.90;99.90
7704;DHT22;3894;49.700;10.770;2024-01-10T03:12:12;-4.90;99.90
7704;DHT22;3894;49.700;10.770;2024-01-10T03:14:37;-4.90;99.90
7704;DHT22;3894;49.700;10.770;2024-01-10T03:17:03;-4.90;99.90
7704;DHT22;3894;49.700;10.770;2024-01-10T03:19:28;-4.90;99.90
7704;DHT22;3894;49.700;10.770;2024-01-10T03:21:54;-4.90;99.90
7704;DHT22;3894;49.700;10.770;2024-01-10T03:24:19;-5.00;99.90
7704;DHT22;3894;49.700;10.770;2024-01-10T03:26:45;-4.90;99.90
7704;DHT22;3894;49.700;10.770;2024-01-10T03:29:11;-4.90;99.90
7704;DHT22;3894;49.700;10.770;2024-01-10T03:31:36;-4.90;99.90
7704;DHT22;3894;49.700;10.770;2024-01-10T03:34:03;-4.90;99.90
7704;DHT22;3894;49.700;10.770;2024-01-10T03:36:29;-4.90;99.90
7704;DHT22;3894;49.700;10.770;2024-01-10T03:38:55;-4.90;99.90
7704;DHT22;3894;49.700;10.770;2024-01-10T03:41:20;-4.90;99.90
7704;DHT22;3894;49.700;10.770;2024-01-10T03:43:46;-5.00;99.90
7704;DHT22;3894;49.700;10.770;2024-01-10T03:46:13;-5.10;99.90
7704;DHT22;3894;49.700;10.770;2024-01-10T03:48:39;-5.10;99.90
7704;DHT22;3894;49.700;10.770;2024-01-10T03:51:14;-5.10;99.90
7704;DHT22;3894;49.700;10.770;2024-01-10T03:53:40;-5.10;99.90
7704;DHT22;3894;49.700;10.770;2024-01-10T03:56:06;-5.20;99.90
7704;DHT22;3894;49.700;10.770;2024-01-10T03:58:32;-5.20;99.90
7704;DHT22;3894;49.700;10.770;2024-01-10T04:00:57;-5.30;99.90
7704;DHT22;3894;49.700;10.770;2024-01-10T04:03:23;-5.30;99.90
7704;DHT22;3894;49.700;10.770;2024-01-10T04:05:48;-5.30;99.90
7704;DHT22;3894;49.700;10.770;2024-01-10T04:08:14;-5.30;99.90
7704;DHT22;3894;49.700;10.770;2024-01-10T04:10:39;-5.30;99.90
7704;DHT22;3894;49.700;10.770;2024-01-10T04:13:05;-5.40;99.90
7704;DHT22;3894;49.700;10.770;2024-01-10T04:15:30;-5.40;99.90
7704;DHT22;3894;49.700;10.770;2024-01-10T04:17:56;-5.40;99.90
7704;DHT22;3894;49.700;10.770;2024-01-10T04:20:21;-5.50;99.90
7704;DHT22;3894;49.700;10.770;2024-01-10T04:22:47;-5.50;99.90
7704;DHT22;3894;49.700;10.770;2024-01-10T04:25:12;-5.40;99.90
7704;DHT22;3894;49.700;10.770;2024-01-10T04:27:38;-5.50;99.90
7704;DHT22;3894;49.700;10.770;2024-01-10T04:30:04;-5.40;99.90
7704;DHT22;3894;49.700;10.770;2024-01-10T04:32:30;-5.40;99.90
7704;DHT22;3894;49.700;10.770;2024-01-10T04:34:56;-5.40;99.90
7704;DHT22;3894;49.700;10.770;2024-01-10T04:37:21;-5.50;99.90
7704;DHT22;3894;49.700;10.770;2024-01-10T04:39:47;-5.50;99.90
7704;DHT22;3894;49.700;10.770;2024-01-10T04:42:13;-5.50;99.90
7704;DHT22;3894;49.700;10.770;2024-01-10T04:44:39;-5.60;99.90
7704;DHT22;3894;49.700;10.770;2024-01-10T04:47:05;-5.60;99.90
7704;DHT22;3894;49.700;10.770;2024-01-10T04:49:31;-5.60;99.90
7704;DHT22;3894;49.700;10.770;2024-01-10T04:51:57;-5.60;99.90
7704;DHT22;3894;49.700;10.770;2024-01-10T04:54:22;-5.60;99.90
7704;DHT22;3894;49.700;10.770;2024-01-10T04:56:48;-5.60;99.90
7704;DHT22;3894;49.700;10.770;2024-01-10T04:59:14;-5.60;99.90
7704;DHT22;3894;49.700;10.770;2024-01-10T05:01:39;-5.60;99.90
7704;DHT22;3894;49.700;10.770;2024-01-10T05:04:05;-5.60;99.90
7704;DHT22;3894;49.700;10.770;2024-01-10T05:06:31;-5.70;99.90
7704;DHT22;3894;49.700;10.770;2024-01-10T05:08:57;-5.70;99.90
7704;DHT22;3894;49.700;10.770;2024-01-10T05:11:24;-5.70;99.90
7704;DHT22;3894;49.700;10.770;2024-01-10T05:13:50;-5.70;99.90
7704;DHT22;3894;49.700;10.770;2024-01-10T05:16:16;-5.70;99.90
7704;DHT22;3894;49.700;10.770;2024-01-10T05:18:42;-5.70;99.90
7704;DHT22;3894;49.700;10.770;2024-01-10T05:21:08;-5.70;99.90
7704;DHT22;3894;49.700;10.770;2024-01-10T05:23:33;-5.70;99.90
7704;DHT22;3894;49.700;10.770;2024-01-10T05:25:59;-5.70;99.90
7704;DHT22;3894;49.700;10.770;2024-01-10T05:28:24;-5.70;99.90
7704;DHT22;3894;49.700;10.770;2024-01-10T05:30:50;-5.80;99.90
7704;DHT22;3894;49.700;10.770;2024-01-10T05:33:15;-5.70;99.90
7704;DHT22;3894;49.700;10.770;2024-01-10T05:35:42;-5.80;99.90
7704;DHT22;3894;49.700;10.770;2024-01-10T05:38:07;-5.80;99.90
7704;DHT22;3894;49.700;10.770;2024-01-10T05:40:33;-5.80;99.90
7704;DHT22;3894;49.700;10.770;2024-01-10T05:42:59;-5.80;99.90
7704;DHT22;3894;49.700;10.770;2024-01-10T05:45:25;-5.80;99.90
7704;DHT22;3894;49.700;10.770;2024-01-10T05:47:51;-5.80;99.90
7704;DHT22;3894;49.700;10.770;2024-01-10T05:50:17;-5.80;99.90
7704;DHT22;3894;49.700;10.770;2024-01-10T05:52:43;-5.80;99.90
7704;DHT22;3894;49.700;10.770;2024-01-10T05:55:12;-5.80;99.90
7704;DHT22;3894;49.700;10.770;2024-01-10T05:57:37;-5.80;99.90
7704;DHT22;3894;49.700;10.770;2024-01-10T06:00:04;-5.90;99.90
7704;DHT22;3894;49.700;10.770;2024-01-10T06:02:37;-5.90;99.90
7704;DHT22;3894;49.700;10.770;2024-01-10T06:05:10;-5.90;99.90
7704;DHT22;3894;49.700;10.770;2024-01-10T06:07:37;-5.90;99.90
7704;DHT22;3894;49.700;10.770;2024-01-10T06:10:02;-5.90;99.90
7704;DHT22;3894;49.700;10.770;2024-01-10T06:12:28;-5.90;99.90
7704;DHT22;3894;49.700;10.770;2024-01-10T06:14:54;-5.90;99.90
7704;DHT22;3894;49.700;10.770;2024-01-10T06:17:20;-6.00;99.90
7704;DHT22;3894;49.700;10.770;2024-01-10T06:19:45;-5.90;99.90
7704;DHT22;3894;49.700;10.770;2024-01-10T06:22:11;-5.90;99.90
7704;DHT22;3894;49.700;10.770;2024-01-10T06:24:37;-6.00;99.90
7704;DHT22;3894;49.700;10.770;2024-01-10T06:27:03;-6.00;99.90
7704;DHT22;3894;49.700;10.770;2024-01-10T06:29:30;-6.00;99.90
7704;DHT22;3894;49.700;10.770;2024-01-10T06:31:55;-6.00;99.90
7704;DHT22;3894;49.700;10.770;2024-01-10T06:34:22;-6.00;99.90
7704;DHT22;3894;49.700;10.770;2024-01-10T06:36:48;-6.10;99.90
7704;DHT22;3894;49.700;10.770;2024-01-10T06:39:13;-6.10;99.90
7704;DHT22;3894;49.700;10.770;2024-01-10T06:41:39;-6.20;99.90
7704;DHT22;3894;49.700;10.770;2024-01-10T06:44:05;-6.20;99.90
7704;DHT22;3894;49.700;10.770;2024-01-10T06:46:32;-6.20;99.90
7704;DHT22;3894;49.700;10.770;2024-01-10T06:48:58;-6.20;99.90
7704;DHT22;3894;49.700;10.770;2024-01-10T06:51:24;-6.20;99.90
7704;DHT22;3894;49.700;10.770;2024-01-10T06:53:50;-6.20;99.90
7704;DHT22;3894;49.700;10.770;2024-01-10T06:56:15;-6.30;99.90
7704;DHT22;3894;49.700;10.770;2024-01-10T06:58:41;-6.30;99.90
7704;DHT22;3894;49.700;10.770;2024-01-10T07:01:13;-6.30;99.90
7704;DHT22;3894;49.700;10.770;2024-01-10T07:03:40;-6.40;99.90
7704;DHT22;3894;49.700;10.770;2024-01-10T07:06:05;-6.40;99.90
7704;DHT22;3894;49.700;10.770;2024-01-10T07:08:31;-6.40;99.90
7704;DHT22;3894;49.700;10.770;2024-01-10T07:10:57;-6.40;99.90
7704;DHT22;3894;49.700;10.770;2024-01-10T07:13:23;-6.40;99.90
7704;DHT22;3894;49.700;10.770;2024-01-10T07:15:48;-6.30;99.90
7704;DHT22;3894;49.700;10.770;2024-01-10T07:18:16;-6.30;99.90
7704;DHT22;3894;49.700;10.770;2024-01-10T07:20:41;-6.30;99.90
7704;DHT22;3894;49.700;10.770;2024-01-10T07:23:07;-6.30;99.90
7704;DHT22;3894;49.700;10.770;2024-01-10T07:25:33;-6.30;99.90
7704;DHT22;3894;49.700;10.770;2024-01-10T07:27:59;-6.30;99.90
7704;DHT22;3894;49.700;10.770;2024-01-10T07:30:25;-6.30;99.90
7704;DHT22;3894;49.700;10.770;2024-01-10T07:32:50;-6.30;99.90
7704;DHT22;3894;49.700;10.770;2024-01-10T07:35:16;-6.20;99.90
7704;DHT22;3894;49.700;10.770;2024-01-10T07:37:42;-6.20;99.90
7704;DHT22;3894;49.700;10.770;2024-01-10T07:40:10;-6.20;99.90
7704;DHT22;3894;49.700;10.770;2024-01-10T07:42:36;-6.10;99.90
7704;DHT22;3894;49.700;10.770;2024-01-10T07:45:02;-6.10;99.90
7704;DHT22;3894;49.700;10.770;2024-01-10T07:47:31;-6.10;99.90
7704;DHT22;3894;49.700;10.770;2024-01-10T07:49:57;-6.00;99.90
7704;DHT22;3894;49.700;10.770;2024-01-10T07:52:23;-6.00;99.90
7704;DHT22;3894;49.700;10.770;2024-01-10T07:54:49;-5.90;99.90
7704;DHT22;3894;49.700;10.770;2024-01-10T07:57:14;-5.90;99.90
7704;DHT22;3894;49.700;10.770;2024-01-10T07:59:40;-5.80;99.90
7704;DHT22;3894;49.700;10.770;2024-01-10T08:02:05;-5.80;99.90
7704;DHT22;3894;49.700;10.770;2024-01-10T08:04:32;-5.80;99.90
7704;DHT22;3894;49.700;10.770;2024-01-10T08:06:58;-5.70;99.90
7704;DHT22;3894;49.700;10.770;2024-01-10T08:09:24;-5.70;99.90
7704;DHT22;3894;49.700;10.770;2024-01-10T08:11:49;-5.60;99.90
7704;DHT22;3894;49.700;10.770;2024-01-10T08:14:15;-5.70;99.90
7704;DHT22;3894;49.700;10.770;2024-01-10T08:16:42;-5.70;99.90
7704;DHT22;3894;49.700;10.770;2024-01-10T08:19:08;-5.60;99.90
7704;DHT22;3894;49.700;10.770;2024-01-10T08:21:34;-5.50;99.90
7704;DHT22;3894;49.700;10.770;2024-01-10T08:24:01;-5.40;99.90
7704;DHT22;3894;49.700;10.770;2024-01-10T08:26:27;-5.20;99.90
7704;DHT22;3894;49.700;10.770;2024-01-10T08:28:53;-5.10;99.90
7704;DHT22;3894;49.700;10.770;2024-01-10T08:31:19;-5.00;99.90
7704;DHT22;3894;49.700;10.770;2024-01-10T08:33:44;-5.00;99.90
7704;DHT22;3894;49.700;10.770;2024-01-10T08:36:10;-4.90;99.90
7704;DHT22;3894;49.700;10.770;2024-01-10T08:38:36;-4.80;99.90
7704;DHT22;3894;49.700;10.770;2024-01-10T08:41:02;-4.70;99.90
7704;DHT22;3894;49.700;10.770;2024-01-10T08:43:29;-4.60;99.90
7704;DHT22;3894;49.700;10.770;2024-01-10T08:45:54;-4.50;99.90
7704;DHT22;3894;49.700;10.770;2024-01-10T08:48:20;-4.40;99.90
7704;DHT22;3894;49.700;10.770;2024-01-10T08:50:45;-4.40;99.90
7704;DHT22;3894;49.700;10.770;2024-01-10T08:53:11;-4.30;99.90
7704;DHT22;3894;49.700;10.770;2024-01-10T08:55:36;-4.10;99.90
7704;DHT22;3894;49.700;10.770;2024-01-10T08:58:03;-4.10;99.90
7704;DHT22;3894;49.700;10.770;2024-01-10T09:00:28;-4.00;99.90
7704;DHT22;3894;49.700;10.770;2024-01-10T09:02:57;-3.80;99.90
7704;DHT22;3894;49.700;10.770;2024-01-10T09:05:22;-3.80;99.90
7704;DHT22;3894;49.700;10.770;2024-01-10T09:07:48;-3.70;99.90
7704;DHT22;3894;49.700;10.770;2024-01-10T09:10:14;-3.60;99.90
7704;DHT22;3894;49.700;10.770;2024-01-10T09:12:40;-3.60;99.90
7704;DHT22;3894;49.700;10.770;2024-01-10T09:15:08;-3.60;99.90
7704;DHT22;3894;49.700;10.770;2024-01-10T09:17:38;-3.50;99.90
7704;DHT22;3894;49.700;10.770;2024-01-10T09:20:04;-3.50;99.90
7704;DHT22;3894;49.700;10.770;2024-01-10T09:22:30;-3.30;99.90
7704;DHT22;3894;49.700;10.770;2024-01-10T09:24:55;-3.20;99.90
7704;DHT22;3894;49.700;10.770;2024-01-10T09:27:22;-3.20;99.90
7704;DHT22;3894;49.700;10.770;2024-01-10T09:29:48;-3.10;99.90
7704;DHT22;3894;49.700;10.770;2024-01-10T09:32:13;-3.00;99.90
7704;DHT22;3894;49.700;10.770;2024-01-10T09:34:39;-3.00;99.90
7704;DHT22;3894;49.700;10.770;2024-01-10T09:37:05;-2.90;99.90
7704;DHT22;3894;49.700;10.770;2024-01-10T09:39:30;-2.90;99.90
7704;DHT22;3894;49.700;10.770;2024-01-10T09:41:58;-2.80;99.90
7704;DHT22;3894;49.700;10.770;2024-01-10T09:44:24;-2.80;99.90
7704;DHT22;3894;49.700;10.770;2024-01-10T09:46:52;-2.80;99.90
7704;DHT22;3894;49.700;10.770;2024-01-10T09:49:18;-2.90;99.90
7704;DHT22;3894;49.700;10.770;2024-01-10T09:51:45;-2.80;99.90
7704;DHT22;3894;49.700;10.770;2024-01-10T09:54:13;-2.80;99.90
7704;DHT22;3894;49.700;10.770;2024-01-10T09:56:41;-2.70;99.90
7704;DHT22;3894;49.700;10.770;2024-01-10T09:59:07;-2.60;99.90
7704;DHT22;3894;49.700;10.770;2024-01-10T10:01:37;-2.60;99.90
7704;DHT22;3894;49.700;10.770;2024-01-10T10:04:04;-2.50;99.90
7704;DHT22;3894;49.700;10.770;2024-01-10T10:06:33;-2.60;99.90
7704;DHT22;3894;49.700;10.770;2024-01-10T10:08:59;-2.70;99.90
7704;DHT22;3894;49.700;10.770;2024-01-10T10:11:25;-2.60;99.90
7704;DHT22;3894;49.700;10.770;2024-01-10T10:13:50;-2.50;99.90
7704;DHT22;3894;49.700;10.770;2024-01-10T10:16:23;-2.40;99.90
7704;DHT22;3894;49.700;10.770;2024-01-10T10:18:49;-2.20;99.90
7704;DHT22;3894;49.700;10.770;2024-01-10T10:21:15;-2.10;99.90
7704;DHT22;3894;49.700;10.770;2024-01-10T10:23:43;-2.10;99.90
7704;DHT22;3894;49.700;10.770;2024-01-10T10:26:22;-2.00;99.90
7704;DHT22;3894;49.700;10.770;2024-01-10T10:28:49;-1.90;99.90
7704;DHT22;3894;49.700;10.770;2024-01-10T10:31:17;-1.80;99.90
7704;DHT22;3894;49.700;10.770;2024-01-10T10:33:42;-1.70;99.90
7704;DHT22;3894;49.700;10.770;2024-01-10T10:36:09;-1.70;99.90
7704;DHT22;3894;49.700;10.770;2024-01-10T10:38:35;-1.60;99.90
7704;DHT22;3894;49.700;10.770;2024-01-10T10:41:05;-1.60;99.90
7704;DHT22;3894;49.700;10.770;2024-01-10T10:43:34;-1.50;99.90
7704;DHT22;3894;49.700;10.770;2024-01-10T10:46:01;-1.40;99.90
7704;DHT22;3894;49.700;10.770;2024-01-10T10:48:28;-1.40;99.90
7704;DHT22;3894;49.700;10.770;2024-01-10T10:53:33;-1.30;99.90
7704;DHT22;3894;49.700;10.770;2024-01-10T10:56:00;-1.30;99.90
7704;DHT22;3894;49.700;10.770;2024-01-10T10:58:27;-1.20;99.90
7704;DHT22;3894;49.700;10.770;2024-01-10T11:00:53;-1.10;99.90
7704;DHT22;3894;49.700;10.770;2024-01-10T11:03:20;-1.10;99.90
7704;DHT22;3894;49.700;10.770;2024-01-10T11:05:47;-1.10;99.90
7704;DHT22;3894;49.700;10.770;2024-01-10T11:08:15;-1.20;99.90
7704;DHT22;3894;49.700;10.770;2024-01-10T11:10:42;-1.30;99.90
7704;DHT22;3894;49.700;10.770;2024-01-10T11:13:27;-1.40;99.90
7704;DHT22;3894;49.700;10.770;2024-01-10T11:16:13;-1.40;99.90
7704;DHT22;3894;49.700;10.770;2024-01-10T11:24:14;-1.60;99.90
7704;DHT22;3894;49.700;10.770;2024-01-10T11:26:40;-1.70;99.90
7704;DHT22;3894;49.700;10.770;2024-01-10T11:29:05;-1.70;99.90
7704;DHT22;3894;49.700;10.770;2024-01-10T11:31:32;-1.70;99.90
7704;DHT22;3894;49.700;10.770;2024-01-10T11:34:01;-1.70;99.90
7704;DHT22;3894;49.700;10.770;2024-01-10T11:36:26;-1.70;99.90
7704;DHT22;3894;49.700;10.770;2024-01-10T11:46:47;-1.80;99.90
7704;DHT22;3894;49.700;10.770;2024-01-10T11:49:15;-1.80;99.90
7704;DHT22;3894;49.700;10.770;2024-01-10T11:51:44;-1.70;99.90
7704;DHT22;3894;49.700;10.770;2024-01-10T11:54:10;-1.70;99.90
7704;DHT22;3894;49.700;10.770;2024-01-10T11:56:41;-1.70;99.90
7704;DHT22;3894;49.700;10.770;2024-01-10T11:59:10;-1.70;99.90
7704;DHT22;3894;49.700;10.770;2024-01-10T12:01:41;-1.70;99.90
7704;DHT22;3894;49.700;10.770;2024-01-10T12:04:08;-1.70;99.90
7704;DHT22;3894;49.700;10.770;2024-01-10T12:06:37;-1.70;99.90
7704;DHT22;3894;49.700;10.770;2024-01-10T12:09:03;-1.60;99.90
7704;DHT22;3894;49.700;10.770;2024-01-10T12:11:35;-1.60;99.90
7704;DHT22;3894;49.700;10.770;2024-01-10T12:14:02;-1.50;99.90
7704;DHT22;3894;49.700;10.770;2024-01-10T12:16:27;-1.50;99.90
7704;DHT22;3894;49.700;10.770;2024-01-10T12:18:54;-1.50;99.90
7704;DHT22;3894;49.700;10.770;2024-01-10T12:21:20;-1.40;99.90
7704;DHT22;3894;49.700;10.770;2024-01-10T12:23:46;-1.40;99.90
7704;DHT22;3894;49.700;10.770;2024-01-10T12:26:12;-1.40;99.90
7704;DHT22;3894;49.700;10.770;2024-01-10T12:28:39;-1.40;99.90
7704;DHT22;3894;49.700;10.770;2024-01-10T12:31:05;-1.30;99.90
7704;DHT22;3894;49.700;10.770;2024-01-10T12:33:33;-1.30;99.90
7704;DHT22;3894;49.700;10.770;2024-01-10T12:36:18;-1.30;99.90
7704;DHT22;3894;49.700;10.770;2024-01-10T12:38:44;-1.30;99.90
7704;DHT22;3894;49.700;10.770;2024-01-10T12:41:15;-1.20;99.90
7704;DHT22;3894;49.700;10.770;2024-01-10T12:43:41;-1.20;99.90
7704;DHT22;3894;49.700;10.770;2024-01-10T12:46:10;-1.10;99.90
7704;DHT22;3894;49.700;10.770;2024-01-10T12:48:40;-1.10;99.90
7704;DHT22;3894;49.700;10.770;2024-01-10T12:51:09;-1.10;99.90
7704;DHT22;3894;49.700;10.770;2024-01-10T12:53:42;-1.10;99.90
7704;DHT22;3894;49.700;10.770;2024-01-10T12:56:09;-1.00;99.90
7704;DHT22;3894;49.700;10.770;2024-01-10T12:58:40;-1.00;99.90
7704;DHT22;3894;49.700;10.770;2024-01-10T13:01:08;-1.00;99.90
7704;DHT22;3894;49.700;10.770;2024-01-10T13:03:34;-0.90;99.90
7704;DHT22;3894;49.700;10.770;2024-01-10T13:05:59;-0.90;99.90
7704;DHT22;3894;49.700;10.770;2024-01-10T13:08:25;-0.90;99.90
7704;DHT22;3894;49.700;10.770;2024-01-10T13:10:51;-0.90;99.90
7704;DHT22;3894;49.700;10.770;2024-01-10T13:13:16;-0.90;99.90
7704;DHT22;3894;49.700;10.770;2024-01-10T13:15:49;-0.90;99.90
7704;DHT22;3894;49.700;10.770;2024-01-10T13:18:15;-0.90;99.90
7704;DHT22;3894;49.700;10.770;2024-01-10T13:20:42;-0.90;99.90
7704;DHT22;3894;49.700;10.770;2024-01-10T13:23:08;-0.90;99.90
7704;DHT22;3894;49.700;10.770;2024-01-10T13:25:35;-0.80;99.90
7704;DHT22;3894;49.700;10.770;2024-01-10T13:28:00;-0.80;99.90
7704;DHT22;3894;49.700;10.770;2024-01-10T13:30:26;-0.80;99.90
7704;DHT22;3894;49.700;10.770;2024-01-10T13:32:52;-0.70;99.90
7704;DHT22;3894;49.700;10.770;2024-01-10T13:35:18;-0.70;99.90
7704;DHT22;3894;49.700;10.770;2024-01-10T13:37:46;-0.50;99.90
7704;DHT22;3894;49.700;10.770;2024-01-10T13:40:12;-0.30;99.90
7704;DHT22;3894;49.700;10.770;2024-01-10T13:42:41;0.00;99.90
7704;DHT22;3894;49.700;10.770;2024-01-10T13:45:09;0.30;99.90
7704;DHT22;3894;49.700;10.770;2024-01-10T13:47:37;0.30;99.90
7704;DHT22;3894;49.700;10.770;2024-01-10T13:50:04;0.10;99.90
7704;DHT22;3894;49.700;10.770;2024-01-10T13:52:31;0.00;99.90
7704;DHT22;3894;49.700;10.770;2024-01-10T13:54:57;-0.10;99.90
7704;DHT22;3894;49.700;10.770;2024-01-10T13:57:22;-0.10;99.90
7704;DHT22;3894;49.700;10.770;2024-01-10T13:59:48;-0.20;99.90
7704;DHT22;3894;49.700;10.770;2024-01-10T14:02:14;-0.20;99.90
7704;DHT22;3894;49.700;10.770;2024-01-10T14:04:41;-0.20;99.90
7704;DHT22;3894;49.700;10.770;2024-01-10T14:07:06;-0.20;99.90
7704;DHT22;3894;49.700;10.770;2024-01-10T14:09:32;-0.30;99.90
7704;DHT22;3894;49.700;10.770;2024-01-10T14:11:57;-0.30;99.90
7704;DHT22;3894;49.700;10.770;2024-01-10T14:14:23;-0.30;99.90
7704;DHT22;3894;49.700;10.770;2024-01-10T14:16:49;-0.20;99.90
7704;DHT22;3894;49.700;10.770;2024-01-10T14:19:15;-0.30;99.90
7704;DHT22;3894;49.700;10.770;2024-01-10T14:21:42;-0.30;99.90
7704;DHT22;3894;49.700;10.770;2024-01-10T14:24:08;-0.30;99.90
7704;DHT22;3894;49.700;10.770;2024-01-10T14:26:33;-0.30;99.90
7704;DHT22;3894;49.700;10.770;2024-01-10T14:28:59;-0.30;99.90
7704;DHT22;3894;49.700;10.770;2024-01-10T14:31:24;-0.40;99.90
7704;DHT22;3894;49.700;10.770;2024-01-10T14:33:50;-0.40;99.90
7704;DHT22;3894;49.700;10.770;2024-01-10T14:36:16;-0.40;99.90
7704;DHT22;3894;49.700;10.770;2024-01-10T14:38:42;-0.40;99.90
7704;DHT22;3894;49.700;10.770;2024-01-10T14:41:08;-0.40;99.90
7704;DHT22;3894;49.700;10.770;2024-01-10T14:43:36;-0.40;99.90
7704;DHT22;3894;49.700;10.770;2024-01-10T14:46:02;-0.40;99.90
7704;DHT22;3894;49.700;10.770;2024-01-10T14:48:28;-0.50;99.90
7704;DHT22;3894;49.700;10.770;2024-01-10T14:50:53;-0.50;99.90
7704;DHT22;3894;49.700;10.770;2024-01-10T14:53:19;-0.50;99.90
7704;DHT22;3894;49.700;10.770;2024-01-10T14:55:45;-0.50;99.90
7704;DHT22;3894;49.700;10.770;2024-01-10T14:58:10;-0.50;99.90
7704;DHT22;3894;49.700;10.770;2024-01-10T15:00:37;-0.50;99.90
7704;DHT22;3894;49.700;10.770;2024-01-10T15:03:03;-0.60;99.90
7704;DHT22;3894;49.700;10.770;2024-01-10T15:05:31;-0.60;99.90
7704;DHT22;3894;49.700;10.770;2024-01-10T15:07:57;-0.70;99.90
7704;DHT22;3894;49.700;10.770;2024-01-10T15:10:22;-0.70;99.90
7704;DHT22;3894;49.700;10.770;2024-01-10T15:12:48;-0.70;99.90
7704;DHT22;3894;49.700;10.770;2024-01-10T15:15:13;-0.80;99.90
7704;DHT22;3894;49.700;10.770;2024-01-10T15:17:39;-0.80;99.90
7704;DHT22;3894;49.700;10.770;2024-01-10T15:20:06;-0.80;99.90
7704;DHT22;3894;49.700;10.770;2024-01-10T15:22:32;-0.90;99.90
7704;DHT22;3894;49.700;10.770;2024-01-10T15:24:58;-0.90;99.90
7704;DHT22;3894;49.700;10.770;2024-01-10T15:27:26;-1.00;99.90
7704;DHT22;3894;49.700;10.770;2024-01-10T15:29:53;-1.00;99.90
7704;DHT22;3894;49.700;10.770;2024-01-10T15:32:20;-1.00;99.90
7704;DHT22;3894;49.700;10.770;2024-01-10T15:34:45;-1.10;99.90
7704;DHT22;3894;49.700;10.770;2024-01-10T15:37:11;-1.10;99.90
7704;DHT22;3894;49.700;10.770;2024-01-10T15:39:36;-1.20;99.90
7704;DHT22;3894;49.700;10.770;2024-01-10T15:42:04;-1.20;99.90
7704;DHT22;3894;49.700;10.770;2024-01-10T15:44:30;-1.20;99.90
7704;DHT22;3894;49.700;10.770;2024-01-10T15:46:55;-1.30;99.90
7704;DHT22;3894;49.700;10.770;2024-01-10T15:49:23;-1.30;99.90
7704;DHT22;3894;49.700;10.770;2024-01-10T15:51:49;-1.40;99.90
7704;DHT22;3894;49.700;10.770;2024-01-10T15:54:15;-1.40;99.90
7704;DHT22;3894;49.700;10.770;2024-01-10T15:56:41;-1.40;99.90